KCTZ/CTZ METAR and TAF weather

Enter ICAO airport designator
Station Type Date Time Source
KCTZ METAR 2019/02/23 16:40 UTC NOAA

KCTZ 231640Z AUTO 03006KT 10SM OVC007 07/07 A3029 RMK AO2 T00700070


Station Type Date Time Source
KCTZ Decoded METAR 2019/02/23 16:40 UTC NOAA

Clinton, Sampson County Airport, NC, United States (KCTZ) 34-58-32N 078-21-53W
Feb 23, 2019 - 11:40 AM EST / 2019.02.23 1640 UTC
Wind: from the NNE (030 degrees) at 7 MPH (6 KT):0
Visibility: 10 mile(s):0
Sky conditions: overcast
Temperature: 44.6 F (7.0 C)
Dew Point: 44.6 F (7.0 C)
Relative Humidity: 100%
Pressure (altimeter): 30.29 in. Hg (1025 hPa)
ob: KCTZ 231640Z AUTO 03006KT 10SM OVC007 07/07 A3029 RMK AO2 T00700070
cycle: 16

Station Type Date Time Source
KCTZ TAF UTC NOAA

Error!


Example: see airport list